Temp: 17.0°C   Baro: 1010.5mb
  Wind: 10.1mph   Dir: WNW (287°)
  Rain: 0.8mm (0.0mm/hr)
  Solar: 123W/m2  Hum: 91%
 
Bath Spa Weather Station Historical Data
Daily Summary for June 20, 2019 Units:  Both    English   Metric
Daily Weekly Monthly Yearly Custom
  High: Low: Average:
Temperature: 68 °F /  20 °C 57 °F /  13.9 °C 62.9 °F /  17.2 °C
Dew Point: 60.3 °F /  15.7 °C 52.3 °F /  11.3 °C 56.7 °F /  13.7 °C
Humidity: 93% 63% 81%
Wind Speed: 23mph /  37km/h - 6.3mph /  10.1km/h
Wind Gust: 24mph /  38.6km/h - -
Wind- - West
Pressure: 30.02 in /  1016.5 hPa 29.65 in /  1003.9 hPa -
Precipitation: 0.07 in /  1.78 mm    
Historical Graphs
 
 
Tabular Data for June 20, 2019
Time Temperature Dew Point Pressure Wind Wind Speed Wind Gust Humidity Rainfall Rate (Hourly) solar
00:04 62.2 °F /  16.8 °C 59.9 °F /  15.5 °C 29.71in /  1006hPa SW 0.9mph /  1.4km/h 4mph /  6.4km/h 92% 0.00in /  0mm 0 W/m2
00:09 62.2 °F /  16.8 °C 59.9 °F /  15.5 °C 29.71in /  1006hPa Calm   2mph /  3.2km/h 92% 0.00in /  0mm 0 W/m2
00:14 62.2 °F /  16.8 °C 59.9 °F /  15.5 °C 29.71in /  1006hPa SSW 6mph /  9.7km/h 6mph /  9.7km/h 92% 0.00in /  0mm 0 W/m2
00:19 62.2 °F /  16.8 °C 59.9 °F /  15.5 °C 29.71in /  1006hPa Calm   3mph /  4.8km/h 92% 0.00in /  0mm 0 W/m2
00:24 62.2 °F /  16.8 °C 59.9 °F /  15.5 °C 29.71in /  1006hPa SSW 0.9mph /  1.4km/h 2mph /  3.2km/h 92% 0.00in /  0mm 0 W/m2
00:29 62.1 °F /  16.7 °C 59.7 °F /  15.4 °C 29.71in /  1006hPa Calm   1mph /  1.6km/h 92% 0.00in /  0mm 0 W/m2
00:34 62.1 °F /  16.7 °C 59.7 °F /  15.4 °C 29.71in /  1006hPa Calm     92% 0.01in /  0.25mm 0 W/m2
00:39 62.1 °F /  16.7 °C 59.7 °F /  15.4 °C 29.70in /  1005.6hPa SSW 4mph /  6.4km/h 4mph /  6.4km/h 92% 0.01in /  0.25mm 0 W/m2
00:44 62.1 °F /  16.7 °C 59.7 °F /  15.4 °C 29.70in /  1005.6hPa SSW 0.9mph /  1.4km/h 4mph /  6.4km/h 92% 0.01in /  0.25mm 0 W/m2
00:49 62.1 °F /  16.7 °C 59.7 °F /  15.4 °C 29.70in /  1005.6hPa Calm   1mph /  1.6km/h 92% 0.01in /  0.25mm 0 W/m2
00:54 62.1 °F /  16.7 °C 59.7 °F /  15.4 °C 29.70in /  1005.6hPa SSW 0.9mph /  1.4km/h 4mph /  6.4km/h 92% 0.01in /  0.25mm 0 W/m2
00:59 62.1 °F /  16.7 °C 59.7 °F /  15.4 °C 29.70in /  1005.6hPa Calm   4mph /  6.4km/h 92% 0.01in /  0.25mm 0 W/m2
01:04 62.1 °F /  16.7 °C 59.7 °F /  15.4 °C 29.69in /  1005.3hPa SSE 2.9mph /  4.7km/h 6mph /  9.7km/h 92% 0.01in /  0.25mm 0 W/m2
01:09 62.1 °F /  16.7 °C 59.7 °F /  15.4 °C 29.69in /  1005.3hPa SSE 2mph /  3.2km/h 7mph /  11.3km/h 92% 0.01in /  0.25mm 0 W/m2
01:14 62.1 °F /  16.7 °C 60.1 °F /  15.6 °C 29.69in /  1005.3hPa Calm   5mph /  8km/h 93% 0.01in /  0.25mm 0 W/m2
01:19 62.1 °F /  16.7 °C 60.1 °F /  15.6 °C 29.69in /  1005.3hPa South 6mph /  9.7km/h 6mph /  9.7km/h 93% 0.01in /  0.25mm 0 W/m2
01:24 62.1 °F /  16.7 °C 59.7 °F /  15.4 °C 29.70in /  1005.6hPa Calm   6mph /  9.7km/h 92% 0.01in /  0.25mm 0 W/m2
01:29 62.1 °F /  16.7 °C 59.7 °F /  15.4 °C 29.68in /  1005hPa Calm     92% 0.00in /  0mm 0 W/m2
01:34 62.2 °F /  16.8 °C 59.9 °F /  15.5 °C 29.69in /  1005.3hPa Calm   1mph /  1.6km/h 92% 0.00in /  0mm 0 W/m2
01:39 62.2 °F /  16.8 °C 59.9 °F /  15.5 °C 29.69in /  1005.3hPa Calm     92% 0.00in /  0mm 0 W/m2
01:44 62.2 °F /  16.8 °C 60.3 °F /  15.7 °C 29.69in /  1005.3hPa Calm     93% 0.00in /  0mm 0 W/m2
01:49 62.2 °F /  16.8 °C 59.9 °F /  15.5 °C 29.69in /  1005.3hPa SW 2mph /  3.2km/h 3mph /  4.8km/h 92% 0.00in /  0mm 0 W/m2
01:54 62.1 °F /  16.7 °C 59.7 °F /  15.4 °C 29.69in /  1005.3hPa SW 0.9mph /  1.4km/h 3mph /  4.8km/h 92% 0.00in /  0mm 0 W/m2
01:59 62.1 °F /  16.7 °C 59.7 °F /  15.4 °C 29.69in /  1005.3hPa SW 0.9mph /  1.4km/h 4mph /  6.4km/h 92% 0.00in /  0mm 0 W/m2
02:04 62.1 °F /  16.7 °C 60.1 °F /  15.6 °C 29.69in /  1005.3hPa Calm   4mph /  6.4km/h 93% 0.00in /  0mm 0 W/m2
02:09 62.1 °F /  16.7 °C 60.1 °F /  15.6 °C 29.69in /  1005.3hPa Calm   4mph /  6.4km/h 93% 0.00in /  0mm 0 W/m2
02:14 62.1 °F /  16.7 °C 59.7 °F /  15.4 °C 29.69in /  1005.3hPa SSW 6mph /  9.7km/h 6mph /  9.7km/h 92% 0.00in /  0mm 0 W/m2
02:19 62.1 °F /  16.7 °C 59.7 °F /  15.4 °C 29.69in /  1005.3hPa Calm   4mph /  6.4km/h 92% 0.00in /  0mm 0 W/m2
02:24 62.1 °F /  16.7 °C 59.7 °F /  15.4 °C 29.69in /  1005.3hPa Calm   6mph /  9.7km/h 92% 0.00in /  0mm 0 W/m2
02:29 62.1 °F /  16.7 °C 59.7 °F /  15.4 °C 29.68in /  1005hPa SW 4.9mph /  7.9km/h 10mph /  16.1km/h 92% 0.00in /  0mm 0 W/m2
02:34 61.9 °F /  16.6 °C 59.5 °F /  15.3 °C 29.68in /  1005hPa SSW 2.9mph /  4.7km/h 5mph /  8km/h 92% 0.00in /  0mm 0 W/m2
02:39 61.9 °F /  16.6 °C 59.5 °F /  15.3 °C 29.68in /  1005hPa SSW 2.9mph /  4.7km/h 7mph /  11.3km/h 92% 0.00in /  0mm 0 W/m2
02:44 61.9 °F /  16.6 °C 59.5 °F /  15.3 °C 29.68in /  1005hPa SSW 0.9mph /  1.4km/h 7mph /  11.3km/h 92% 0.01in /  0.25mm 0 W/m2
02:49 61.7 °F /  16.5 °C 59.4 °F /  15.2 °C 29.68in /  1005hPa SW 6.9mph /  11.1km/h 13mph /  20.9km/h 92% 0.01in /  0.25mm 0 W/m2
02:54 61.7 °F /  16.5 °C 59.4 °F /  15.2 °C 29.68in /  1005hPa SW 4.9mph /  7.9km/h 8mph /  12.9km/h 92% 0.01in /  0.25mm 0 W/m2
02:59 61.5 °F /  16.4 °C 59.2 °F /  15.1 °C 29.67in /  1004.6hPa SSW 2.9mph /  4.7km/h 7mph /  11.3km/h 92% 0.04in /  1.02mm 0 W/m2
03:04 61.5 °F /  16.4 °C 59.2 °F /  15.1 °C 29.67in /  1004.6hPa South 4mph /  6.4km/h 7mph /  11.3km/h 92% 0.04in /  1.02mm 0 W/m2
03:09 61.5 °F /  16.4 °C 59.2 °F /  15.1 °C 29.67in /  1004.6hPa SSW 0.9mph /  1.4km/h 9mph /  14.5km/h 92% 0.04in /  1.02mm 0 W/m2
03:14 61.5 °F /  16.4 °C 59.2 °F /  15.1 °C 29.67in /  1004.6hPa Calm   10mph /  16.1km/h 92% 0.04in /  1.02mm 0 W/m2
03:19 61.5 °F /  16.4 °C 59.2 °F /  15.1 °C 29.67in /  1004.6hPa SW 4.9mph /  7.9km/h 7mph /  11.3km/h 92% 0.04in /  1.02mm 0 W/m2
03:24 61.3 °F /  16.3 °C 59 °F /  15 °C 29.67in /  1004.6hPa South 0.9mph /  1.4km/h 6mph /  9.7km/h 92% 0.04in /  1.02mm 0 W/m2
03:29 61.3 °F /  16.3 °C 59 °F /  15 °C 29.67in /  1004.6hPa South 4.9mph /  7.9km/h 7mph /  11.3km/h 92% 0.04in /  1.02mm 0 W/m2
03:34 61.3 °F /  16.3 °C 59 °F /  15 °C 29.66in /  1004.3hPa SSW 2.9mph /  4.7km/h 5mph /  8km/h 92% 0.04in /  1.02mm 0 W/m2
03:39 61.3 °F /  16.3 °C 59 °F /  15 °C 29.66in /  1004.3hPa SSW 2mph /  3.2km/h 3mph /  4.8km/h 92% 0.06in /  1.52mm 0 W/m2
03:44 61.3 °F /  16.3 °C 59 °F /  15 °C 29.66in /  1004.3hPa Calm     92% 0.04in /  1.02mm 0 W/m2
03:49 61.3 °F /  16.3 °C 59 °F /  15 °C 29.66in /  1004.3hPa Calm     92% 0.04in /  1.02mm 0 W/m2
03:54 61.3 °F /  16.3 °C 59 °F /  15 °C 29.66in /  1004.3hPa Calm     92% 0.04in /  1.02mm 0 W/m2
03:59 61.3 °F /  16.3 °C 59 °F /  15 °C 29.66in /  1004.3hPa SSW 3mph /  4.8km/h 3mph /  4.8km/h 92% 0.02in /  0.51mm 0 W/m2
04:04 61.3 °F /  16.3 °C 59 °F /  15 °C 29.66in /  1004.3hPa Calm     92% 0.01in /  0.25mm 0 W/m2
04:09 61.3 °F /  16.3 °C 59.4 °F /  15.2 °C 29.65in /  1003.9hPa Calm   7mph /  11.3km/h 93% 0.01in /  0.25mm 0 W/m2
04:14 61.3 °F /  16.3 °C 59 °F /  15 °C 29.65in /  1003.9hPa SSW 2.9mph /  4.7km/h 3mph /  4.8km/h 92% 0.01in /  0.25mm 0 W/m2
04:19 61.3 °F /  16.3 °C 59 °F /  15 °C 29.65in /  1003.9hPa SSW 5mph /  8km/h 5mph /  8km/h 92% 0.01in /  0.25mm 0 W/m2
04:24 61.3 °F /  16.3 °C 59 °F /  15 °C 29.65in /  1003.9hPa SSW 2mph /  3.2km/h 4mph /  6.4km/h 92% 0.01in /  0.25mm 0 W/m2
04:29 61.3 °F /  16.3 °C 59 °F /  15 °C 29.65in /  1003.9hPa SSW 0.9mph /  1.4km/h 3mph /  4.8km/h 92% 0.01in /  0.25mm 0 W/m2
04:34 61.3 °F /  16.3 °C 59 °F /  15 °C 29.66in /  1004.3hPa Calm   4mph /  6.4km/h 92% 0.01in /  0.25mm 0 W/m2
04:39 61.3 °F /  16.3 °C 59 °F /  15 °C 29.65in /  1003.9hPa SW 2.9mph /  4.7km/h 6mph /  9.7km/h 92% 0.00in /  0mm 0 W/m2
04:44 61.3 °F /  16.3 °C 59 °F /  15 °C 29.65in /  1003.9hPa SSW 4.9mph /  7.9km/h 8mph /  12.9km/h 92% 0.00in /  0mm 0 W/m2
04:49 61.3 °F /  16.3 °C 59 °F /  15 °C 29.65in /  1003.9hPa WSW 4.9mph /  7.9km/h 8mph /  12.9km/h 92% 0.00in /  0mm 0 W/m2
04:54 61.5 °F /  16.4 °C 59.2 °F /  15.1 °C 29.65in /  1003.9hPa SSW 0.9mph /  1.4km/h 5mph /  8km/h 92% 0.00in /  0mm 0 W/m2
04:59 61.5 °F /  16.4 °C 59.2 °F /  15.1 °C 29.66in /  1004.3hPa SSW 0.9mph /  1.4km/h 5mph /  8km/h 92% 0.00in /  0mm 0 W/m2
05:04 61.3 °F /  16.3 °C 59 °F /  15 °C 29.66in /  1004.3hPa SW 8mph /  12.9km/h 8mph /  12.9km/h 92% 0.00in /  0mm 0 W/m2
05:09 61.3 °F /  16.3 °C 59 °F /  15 °C 29.66in /  1004.3hPa South 2mph /  3.2km/h 8mph /  12.9km/h 92% 0.00in /  0mm 0 W/m2
05:14 61.3 °F /  16.3 °C 59 °F /  15 °C 29.66in /  1004.3hPa SW 2.9mph /  4.7km/h 5mph /  8km/h 92% 0.00in /  0mm 0 W/m2
05:19 61.3 °F /  16.3 °C 59 °F /  15 °C 29.66in /  1004.3hPa SW 4.9mph /  7.9km/h 6mph /  9.7km/h 92% 0.00in /  0mm 0 W/m2
05:24 61.3 °F /  16.3 °C 59 °F /  15 °C 29.66in /  1004.3hPa SW 0.9mph /  1.4km/h 6mph /  9.7km/h 92% 0.00in /  0mm 0 W/m2
05:29 61.3 °F /  16.3 °C 59 °F /  15 °C 29.66in /  1004.3hPa WSW 9mph /  14.5km/h 9mph /  14.5km/h 92% 0.00in /  0mm 0 W/m2
05:34 61.3 °F /  16.3 °C 59 °F /  15 °C 29.66in /  1004.3hPa SW 4.9mph /  7.9km/h 5mph /  8km/h 92% 0.00in /  0mm 7 W/m2
05:39 61.2 °F /  16.2 °C 58.8 °F /  14.9 °C 29.65in /  1003.9hPa SSW 2mph /  3.2km/h 11mph /  17.7km/h 92% 0.00in /  0mm 9 W/m2
05:44 61 °F /  16.1 °C 58.6 °F /  14.8 °C 29.65in /  1003.9hPa SW 6mph /  9.7km/h 7mph /  11.3km/h 92% 0.00in /  0mm 12 W/m2
05:49 61 °F /  16.1 °C 58.6 °F /  14.8 °C 29.66in /  1004.3hPa Calm   10mph /  16.1km/h 92% 0.00in /  0mm 14 W/m2
05:54 60.8 °F /  16 °C 58.5 °F /  14.7 °C 29.66in /  1004.3hPa WSW 4mph /  6.4km/h 7mph /  11.3km/h 92% 0.00in /  0mm 18 W/m2
05:59 60.8 °F /  16 °C 58.5 °F /  14.7 °C 29.66in /  1004.3hPa SW 2.9mph /  4.7km/h 6mph /  9.7km/h 92% 0.00in /  0mm 23 W/m2
06:04 60.6 °F /  15.9 °C 58.3 °F /  14.6 °C 29.66in /  1004.3hPa SSW 0.9mph /  1.4km/h 5mph /  8km/h 92% 0.00in /  0mm 42 W/m2
06:09 60.6 °F /  15.9 °C 58.3 °F /  14.6 °C 29.66in /  1004.3hPa SW 4mph /  6.4km/h 7mph /  11.3km/h 92% 0.00in /  0mm 26 W/m2
06:14 60.8 °F /  16 °C 58.5 °F /  14.7 °C 29.66in /  1004.3hPa SW 8.1mph /  13km/h 8mph /  12.9km/h 92% 0.00in /  0mm 39 W/m2
06:19 61 °F /  16.1 °C 58.6 °F /  14.8 °C 29.66in /  1004.3hPa SW 8.9mph /  14.3km/h 9mph /  14.5km/h 92% 0.00in /  0mm 40 W/m2
06:24 61 °F /  16.1 °C 58.6 °F /  14.8 °C 29.66in /  1004.3hPa SSW 0.9mph /  1.4km/h 6mph /  9.7km/h 92% 0.00in /  0mm 44 W/m2
06:29 61 °F /  16.1 °C 58.6 °F /  14.8 °C 29.66in /  1004.3hPa SW 6mph /  9.7km/h 8mph /  12.9km/h 92% 0.00in /  0mm 47 W/m2
06:34 61.2 °F /  16.2 °C 58.5 °F /  14.7 °C 29.66in /  1004.3hPa WSW 6.9mph /  11.1km/h 8mph /  12.9km/h 91% 0.00in /  0mm 37 W/m2
06:39 61.2 °F /  16.2 °C 58.5 °F /  14.7 °C 29.66in /  1004.3hPa SW 2.9mph /  4.7km/h 9mph /  14.5km/h 91% 0.00in /  0mm 58 W/m2
06:44 61.3 °F /  16.3 °C 58.6 °F /  14.8 °C 29.66in /  1004.3hPa SW 4.9mph /  7.9km/h 7mph /  11.3km/h 91% 0.00in /  0mm 39 W/m2
06:49 61.3 °F /  16.3 °C 58.6 °F /  14.8 °C 29.66in /  1004.3hPa WSW 10mph /  16.1km/h 10mph /  16.1km/h 91% 0.00in /  0mm 28 W/m2
06:54 61.3 °F /  16.3 °C 58.6 °F /  14.8 °C 29.66in /  1004.3hPa SW 6mph /  9.7km/h 10mph /  16.1km/h 91% 0.00in /  0mm 37 W/m2
06:59 61.3 °F /  16.3 °C 58.6 °F /  14.8 °C 29.66in /  1004.3hPa SW 6mph /  9.7km/h 7mph /  11.3km/h 91% 0.00in /  0mm 44 W/m2
07:04 61.3 °F /  16.3 °C 58.6 °F /  14.8 °C 29.67in /  1004.6hPa WSW 2.9mph /  4.7km/h 9mph /  14.5km/h 91% 0.00in /  0mm 46 W/m2
07:09 61.3 °F /  16.3 °C 58.5 °F /  14.7 °C 29.67in /  1004.6hPa West 10mph /  16.1km/h 10mph /  16.1km/h 90% 0.00in /  0mm 40 W/m2
07:14 61.3 °F /  16.3 °C 58.5 °F /  14.7 °C 29.67in /  1004.6hPa WSW 8.9mph /  14.3km/h 9mph /  14.5km/h 90% 0.00in /  0mm 51 W/m2
07:19 61.3 °F /  16.3 °C 58.5 °F /  14.7 °C 29.67in /  1004.6hPa WSW 10.1mph /  16.3km/h 16mph /  25.7km/h 90% 0.00in /  0mm 72 W/m2
07:24 61.3 °F /  16.3 °C 58.5 °F /  14.7 °C 29.67in /  1004.6hPa West 2.9mph /  4.7km/h 8mph /  12.9km/h 90% 0.00in /  0mm 79 W/m2
07:29 61.3 °F /  16.3 °C 58.1 °F /  14.5 °C 29.67in /  1004.6hPa West 6.9mph /  11.1km/h 11mph /  17.7km/h 89% 0.00in /  0mm 74 W/m2
07:34 61.3 °F /  16.3 °C 58.1 °F /  14.5 °C 29.67in /  1004.6hPa WSW 2.9mph /  4.7km/h 6mph /  9.7km/h 89% 0.00in /  0mm 93 W/m2
07:39 61.3 °F /  16.3 °C 58.1 °F /  14.5 °C 29.67in /  1004.6hPa West 0.9mph /  1.4km/h 6mph /  9.7km/h 89% 0.00in /  0mm 67 W/m2
07:44 61.2 °F /  16.2 °C 57.9 °F /  14.4 °C 29.68in /  1005hPa WSW 6.9mph /  11.1km/h 11mph /  17.7km/h 89% 0.00in /  0mm 171 W/m2
07:49 61.5 °F /  16.4 °C 57.9 °F /  14.4 °C 29.68in /  1005hPa WSW 4.9mph /  7.9km/h 9mph /  14.5km/h 88% 0.00in /  0mm 329 W/m2
07:54 62.1 °F /  16.7 °C 58.1 °F /  14.5 °C 29.68in /  1005hPa SW 6.9mph /  11.1km/h 11mph /  17.7km/h 87% 0.00in /  0mm 200 W/m2
07:59 62.1 °F /  16.7 °C 57.7 °F /  14.3 °C 29.68in /  1005hPa West 2.9mph /  4.7km/h 13mph /  20.9km/h 86% 0.00in /  0mm 295 W/m2
08:04 62.2 °F /  16.8 °C 57.9 °F /  14.4 °C 29.68in /  1005hPa West 2.9mph /  4.7km/h 5mph /  8km/h 86% 0.00in /  0mm 90 W/m2
08:09 62.1 °F /  16.7 °C 57.7 °F /  14.3 °C 29.69in /  1005.3hPa NW 6mph /  9.7km/h 12mph /  19.3km/h 86% 0.00in /  0mm 39 W/m2
08:14 61.2 °F /  16.2 °C 57 °F /  13.9 °C 29.69in /  1005.3hPa West 6mph /  9.7km/h 13mph /  20.9km/h 86% 0.00in /  0mm 32 W/m2
08:19 60.6 °F /  15.9 °C 57 °F /  13.9 °C 29.69in /  1005.3hPa NW 4.9mph /  7.9km/h 9mph /  14.5km/h 88% 0.00in /  0mm 72 W/m2
08:24 60.3 °F /  15.7 °C 57 °F /  13.9 °C 29.70in /  1005.6hPa WNW 2.9mph /  4.7km/h 12mph /  19.3km/h 89% 0.00in /  0mm 42 W/m2
08:29 59.9 °F /  15.5 °C 57 °F /  13.9 °C 29.70in /  1005.6hPa West 2.9mph /  4.7km/h 11mph /  17.7km/h 90% 0.00in /  0mm 65 W/m2
08:34 59.5 °F /  15.3 °C 56.7 °F /  13.7 °C 29.70in /  1005.6hPa West 6mph /  9.7km/h 12mph /  19.3km/h 90% 0.00in /  0mm 91 W/m2
08:39 59.5 °F /  15.3 °C 56.7 °F /  13.7 °C 29.70in /  1005.6hPa WNW 8.1mph /  13km/h 9mph /  14.5km/h 90% 0.00in /  0mm 132 W/m2
08:44 59.5 °F /  15.3 °C 56.8 °F /  13.8 °C 29.70in /  1005.6hPa West 4.9mph /  7.9km/h 13mph /  20.9km/h 91% 0.00in /  0mm 116 W/m2
08:49 59.7 °F /  15.4 °C 56.8 °F /  13.8 °C 29.70in /  1005.6hPa WNW 8.9mph /  14.3km/h 10mph /  16.1km/h 90% 0.00in /  0mm 128 W/m2
08:54 59.7 °F /  15.4 °C 56.8 °F /  13.8 °C 29.70in /  1005.6hPa West 8.1mph /  13km/h 8mph /  12.9km/h 90% 0.00in /  0mm 172 W/m2
08:59 59.9 °F /  15.5 °C 57 °F /  13.9 °C 29.70in /  1005.6hPa WNW 2mph /  3.2km/h 10mph /  16.1km/h 90% 0.00in /  0mm 160 W/m2
09:04 60.3 °F /  15.7 °C 57.4 °F /  14.1 °C 29.70in /  1005.6hPa WNW 8.1mph /  13km/h 9mph /  14.5km/h 90% 0.00in /  0mm 151 W/m2
09:09 60.4 °F /  15.8 °C 57.2 °F /  14 °C 29.71in /  1006hPa West 6mph /  9.7km/h 10mph /  16.1km/h 89% 0.00in /  0mm 178 W/m2
09:14 60.4 °F /  15.8 °C 57.2 °F /  14 °C 29.71in /  1006hPa WNW 10.1mph /  16.3km/h 12mph /  19.3km/h 89% 0.00in /  0mm 176 W/m2
09:19 60.8 °F /  16 °C 57.2 °F /  14 °C 29.71in /  1006hPa WNW 15mph /  24.1km/h 15mph /  24.1km/h 88% 0.00in /  0mm 188 W/m2
09:24 61 °F /  16.1 °C 57 °F /  13.9 °C 29.71in /  1006hPa West 4.9mph /  7.9km/h 10mph /  16.1km/h 87% 0.00in /  0mm 195 W/m2
09:29 61.2 °F /  16.2 °C 56.7 °F /  13.7 °C 29.71in /  1006hPa WNW 6.9mph /  11.1km/h 17mph /  27.4km/h 85% 0.00in /  0mm 253 W/m2
09:34 61.5 °F /  16.4 °C 57 °F /  13.9 °C 29.71in /  1006hPa West 6.9mph /  11.1km/h 14mph /  22.5km/h 85% 0.00in /  0mm 279 W/m2
09:39 61.7 °F /  16.5 °C 56.8 °F /  13.8 °C 29.71in /  1006hPa WSW 10.1mph /  16.3km/h 15mph /  24.1km/h 84% 0.00in /  0mm 265 W/m2
09:44 62.1 °F /  16.7 °C 56.5 °F /  13.6 °C 29.72in /  1006.3hPa WNW 2.9mph /  4.7km/h 12mph /  19.3km/h 82% 0.00in /  0mm 281 W/m2
09:49 62.1 °F /  16.7 °C 56.5 °F /  13.6 °C 29.72in /  1006.3hPa WSW 2mph /  3.2km/h 16mph /  25.7km/h 82% 0.00in /  0mm 257 W/m2
09:54 62.2 °F /  16.8 °C 56.3 °F /  13.5 °C 29.72in /  1006.3hPa West 8.9mph /  14.3km/h 12mph /  19.3km/h 81% 0.00in /  0mm 220 W/m2
09:59 63 °F /  17.2 °C 57.4 °F /  14.1 °C 29.72in /  1006.3hPa WNW 4mph /  6.4km/h 9mph /  14.5km/h 82% 0.00in /  0mm 621 W/m2
10:04 63.3 °F /  17.4 °C 56.7 °F /  13.7 °C 29.72in /  1006.3hPa West 4mph /  6.4km/h 11mph /  17.7km/h 79% 0.00in /  0mm 383 W/m2
10:09 63.9 °F /  17.7 °C 55.8 °F /  13.2 °C 29.72in /  1006.3hPa West 6.9mph /  11.1km/h 20mph /  32.2km/h 75% 0.00in /  0mm 343 W/m2
10:14 63.9 °F /  17.7 °C 55.8 °F /  13.2 °C 29.72in /  1006.3hPa WSW 11mph /  17.7km/h 18mph /  29km/h 75% 0.00in /  0mm 301 W/m2
10:19 63.7 °F /  17.6 °C 55.6 °F /  13.1 °C 29.72in /  1006.3hPa WNW 6mph /  9.7km/h 10mph /  16.1km/h 75% 0.00in /  0mm 276 W/m2
10:24 64 °F /  17.8 °C 55.9 °F /  13.3 °C 29.73in /  1006.7hPa WSW 4mph /  6.4km/h 16mph /  25.7km/h 75% 0.00in /  0mm 679 W/m2
10:29 65.3 °F /  18.5 °C 57.6 °F /  14.2 °C 29.72in /  1006.3hPa West 8.9mph /  14.3km/h 9mph /  14.5km/h 76% 0.00in /  0mm 805 W/m2
10:34 65.3 °F /  18.5 °C 56.8 °F /  13.8 °C 29.73in /  1006.7hPa West 4.9mph /  7.9km/h 16mph /  25.7km/h 74% 0.00in /  0mm 330 W/m2
10:39 65.3 °F /  18.5 °C 56.5 °F /  13.6 °C 29.73in /  1006.7hPa WNW 12.1mph /  19.5km/h 13mph /  20.9km/h 73% 0.00in /  0mm 295 W/m2
10:44 64.8 °F /  18.2 °C 55.9 °F /  13.3 °C 29.73in /  1006.7hPa WSW 6mph /  9.7km/h 13mph /  20.9km/h 73% 0.00in /  0mm 248 W/m2
10:49 64.8 °F /  18.2 °C 55.9 °F /  13.3 °C 29.73in /  1006.7hPa WNW 12.1mph /  19.5km/h 18mph /  29km/h 73% 0.00in /  0mm 301 W/m2
10:54 64.6 °F /  18.1 °C 55 °F /  12.8 °C 29.73in /  1006.7hPa WSW 15mph /  24.1km/h 19mph /  30.6km/h 71% 0.00in /  0mm 362 W/m2
10:59 64.9 °F /  18.3 °C 55.8 °F /  13.2 °C 29.73in /  1006.7hPa WSW 8.9mph /  14.3km/h 15mph /  24.1km/h 72% 0.00in /  0mm 714 W/m2
11:04 65.3 °F /  18.5 °C 56.1 °F /  13.4 °C 29.74in /  1007hPa WNW 12.1mph /  19.5km/h 18mph /  29km/h 72% 0.00in /  0mm 336 W/m2
11:09 65.1 °F /  18.4 °C 56.3 °F /  13.5 °C 29.74in /  1007hPa NW 8.9mph /  14.3km/h 11mph /  17.7km/h 73% 0.00in /  0mm 420 W/m2
11:14 64.9 °F /  18.3 °C 55.8 °F /  13.2 °C 29.74in /  1007hPa NW 8.9mph /  14.3km/h 16mph /  25.7km/h 72% 0.00in /  0mm 336 W/m2
11:19 64.8 °F /  18.2 °C 55.6 °F /  13.1 °C 29.74in /  1007hPa WNW 6.9mph /  11.1km/h 13mph /  20.9km/h 72% 0.00in /  0mm 336 W/m2
11:24 64.4 °F /  18 °C 55.9 °F /  13.3 °C 29.74in /  1007hPa West 12.1mph /  19.5km/h 17mph /  27.4km/h 74% 0.00in /  0mm 499 W/m2
11:29 64.8 °F /  18.2 °C 56.7 °F /  13.7 °C 29.74in /  1007hPa NW 8.1mph /  13km/h 9mph /  14.5km/h 75% 0.00in /  0mm 341 W/m2
11:34 64.6 °F /  18.1 °C 56.1 °F /  13.4 °C 29.75in /  1007.3hPa WNW 12.1mph /  19.5km/h 14mph /  22.5km/h 74% 0.00in /  0mm 295 W/m2
11:39 64.4 °F /  18 °C 55.9 °F /  13.3 °C 29.75in /  1007.3hPa WNW 8.1mph /  13km/h 16mph /  25.7km/h 74% 0.00in /  0mm 348 W/m2
11:44 65.1 °F /  18.4 °C 57.4 °F /  14.1 °C 29.75in /  1007.3hPa West 8.9mph /  14.3km/h 12mph /  19.3km/h 76% 0.00in /  0mm 445 W/m2
11:49 65.3 °F /  18.5 °C 56.5 °F /  13.6 °C 29.75in /  1007.3hPa West 6.9mph /  11.1km/h 18mph /  29km/h 73% 0.01in /  0.25mm 383 W/m2
11:54 65.1 °F /  18.4 °C 56.7 °F /  13.7 °C 29.75in /  1007.3hPa WSW 15mph /  24.1km/h 17mph /  27.4km/h 74% 0.01in /  0.25mm 436 W/m2
11:59 65.1 °F /  18.4 °C 56.3 °F /  13.5 °C 29.75in /  1007.3hPa West 11mph /  17.7km/h 13mph /  20.9km/h 73% 0.01in /  0.25mm 267 W/m2
12:04 65.3 °F /  18.5 °C 56.8 °F /  13.8 °C 29.75in /  1007.3hPa SW 17.9mph /  28.8km/h 18mph /  29km/h 74% 0.01in /  0.25mm 339 W/m2
12:09 65.1 °F /  18.4 °C 57 °F /  13.9 °C 29.76in /  1007.7hPa West 13mph /  20.9km/h 17mph /  27.4km/h 75% 0.01in /  0.25mm 279 W/m2
12:14 64 °F /  17.8 °C 56.3 °F /  13.5 °C 29.76in /  1007.7hPa WNW 8.9mph /  14.3km/h 15mph /  24.1km/h 76% 0.01in /  0.25mm 448 W/m2
12:19 64.4 °F /  18 °C 56.7 °F /  13.7 °C 29.77in /  1008hPa West 12.1mph /  19.5km/h 19mph /  30.6km/h 76% 0.01in /  0.25mm 485 W/m2
12:24 64.4 °F /  18 °C 57 °F /  13.9 °C 29.77in /  1008hPa West 11mph /  17.7km/h 21mph /  33.8km/h 77% 0.01in /  0.25mm 387 W/m2
12:29 64.4 °F /  18 °C 56.7 °F /  13.7 °C 29.77in /  1008hPa NW 4mph /  6.4km/h 15mph /  24.1km/h 76% 0.01in /  0.25mm 371 W/m2
12:34 64.2 °F /  17.9 °C 56.5 °F /  13.6 °C 29.77in /  1008hPa WNW 8.9mph /  14.3km/h 22mph /  35.4km/h 76% 0.01in /  0.25mm 459 W/m2
12:39 64.6 °F /  18.1 °C 56.5 °F /  13.6 °C 29.77in /  1008hPa West 6mph /  9.7km/h 11mph /  17.7km/h 75% 0.01in /  0.25mm 466 W/m2
12:44 65.3 °F /  18.5 °C 56.8 °F /  13.8 °C 29.77in /  1008hPa West 4.9mph /  7.9km/h 17mph /  27.4km/h 74% 0.01in /  0.25mm 671 W/m2
12:49 65.8 °F /  18.8 °C 57 °F /  13.9 °C 29.78in /  1008.4hPa WNW 4.9mph /  7.9km/h 18mph /  29km/h 73% 0.00in /  0mm 506 W/m2
12:54 65.3 °F /  18.5 °C 56.5 °F /  13.6 °C 29.78in /  1008.4hPa NW 6.9mph /  11.1km/h 20mph /  32.2km/h 73% 0.00in /  0mm 341 W/m2
12:59 66.6 °F /  19.2 °C 57.6 °F /  14.2 °C 29.77in /  1008hPa NW 4.9mph /  7.9km/h 12mph /  19.3km/h 73% 0.00in /  0mm 1072 W/m2
13:04 66.9 °F /  19.4 °C 57.2 °F /  14 °C 29.78in /  1008.4hPa NW 6.9mph /  11.1km/h 16mph /  25.7km/h 71% 0.00in /  0mm 1102 W/m2
13:09 66.2 °F /  19 °C 56.5 °F /  13.6 °C 29.78in /  1008.4hPa West 8.9mph /  14.3km/h 19mph /  30.6km/h 71% 0.00in /  0mm 517 W/m2
13:14 66.4 °F /  19.1 °C 57 °F /  13.9 °C 29.78in /  1008.4hPa NW 4mph /  6.4km/h 17mph /  27.4km/h 72% 0.00in /  0mm 406 W/m2
13:19 66.2 °F /  19 °C 56.8 °F /  13.8 °C 29.78in /  1008.4hPa WNW 11mph /  17.7km/h 19mph /  30.6km/h 72% 0.00in /  0mm 406 W/m2
13:24 66.2 °F /  19 °C 56.8 °F /  13.8 °C 29.78in /  1008.4hPa West 8.1mph /  13km/h 20mph /  32.2km/h 72% 0.00in /  0mm 461 W/m2
13:29 66.2 °F /  19 °C 56.8 °F /  13.8 °C 29.78in /  1008.4hPa WNW 8.9mph /  14.3km/h 20mph /  32.2km/h 72% 0.00in /  0mm 468 W/m2
13:34 66.6 °F /  19.2 °C 57.2 °F /  14 °C 29.79in /  1008.7hPa NW 6.9mph /  11.1km/h 21mph /  33.8km/h 72% 0.00in /  0mm 480 W/m2
13:39 66.2 °F /  19 °C 57.2 °F /  14 °C 29.79in /  1008.7hPa WNW 6mph /  9.7km/h 16mph /  25.7km/h 73% 0.00in /  0mm 538 W/m2
13:44 66.4 °F /  19.1 °C 56.7 °F /  13.7 °C 29.79in /  1008.7hPa NW 13mph /  20.9km/h 18mph /  29km/h 71% 0.00in /  0mm 554 W/m2
13:49 65.8 °F /  18.8 °C 56.1 °F /  13.4 °C 29.79in /  1008.7hPa West 22mph /  35.4km/h 22mph /  35.4km/h 71% 0.00in /  0mm 531 W/m2
13:54 65.8 °F /  18.8 °C 56.5 °F /  13.6 °C 29.80in /  1009hPa WSW 12.1mph /  19.5km/h 17mph /  27.4km/h 72% 0.00in /  0mm 485 W/m2
13:59 65.5 °F /  18.6 °C 56.7 °F /  13.7 °C 29.80in /  1009hPa WSW 8.1mph /  13km/h 18mph /  29km/h 73% 0.00in /  0mm 533 W/m2
14:04 65.7 °F /  18.7 °C 56.3 °F /  13.5 °C 29.80in /  1009hPa WNW 4mph /  6.4km/h 19mph /  30.6km/h 72% 0.00in /  0mm 432 W/m2
14:09 65.3 °F /  18.5 °C 56.1 °F /  13.4 °C 29.80in /  1009hPa WNW 16.1mph /  25.9km/h 16mph /  25.7km/h 72% 0.00in /  0mm 568 W/m2
14:14 66.6 °F /  19.2 °C 57.2 °F /  14 °C 29.80in /  1009hPa WNW 16.1mph /  25.9km/h 18mph /  29km/h 72% 0.00in /  0mm 1079 W/m2
14:19 66.6 °F /  19.2 °C 56.8 °F /  13.8 °C 29.80in /  1009hPa NNW 11mph /  17.7km/h 24mph /  38.6km/h 71% 0.00in /  0mm 916 W/m2
14:24 66.9 °F /  19.4 °C 57.2 °F /  14 °C 29.80in /  1009hPa WSW 11mph /  17.7km/h 16mph /  25.7km/h 71% 0.00in /  0mm 918 W/m2
14:29 67.1 °F /  19.5 °C 56.7 °F /  13.7 °C 29.81in /  1009.4hPa WNW 21mph /  33.8km/h 21mph /  33.8km/h 69% 0.00in /  0mm 1032 W/m2
14:34 67.6 °F /  19.8 °C 57 °F /  13.9 °C 29.81in /  1009.4hPa WNW 4mph /  6.4km/h 15mph /  24.1km/h 69% 0.00in /  0mm 803 W/m2
14:39 67.1 °F /  19.5 °C 56.1 °F /  13.4 °C 29.81in /  1009.4hPa WNW 8.9mph /  14.3km/h 15mph /  24.1km/h 68% 0.00in /  0mm 429 W/m2
14:44 67.6 °F /  19.8 °C 56.7 °F /  13.7 °C 29.81in /  1009.4hPa WNW 8.9mph /  14.3km/h 18mph /  29km/h 68% 0.00in /  0mm 315 W/m2
14:49 67.6 °F /  19.8 °C 56.7 °F /  13.7 °C 29.82in /  1009.7hPa West 6.9mph /  11.1km/h 17mph /  27.4km/h 68% 0.00in /  0mm 315 W/m2
14:54 66.7 °F /  19.3 °C 56.3 °F /  13.5 °C 29.82in /  1009.7hPa WNW 2.9mph /  4.7km/h 22mph /  35.4km/h 69% 0.00in /  0mm 944 W/m2
14:59 67.1 °F /  19.5 °C 57 °F /  13.9 °C 29.82in /  1009.7hPa West 16.1mph /  25.9km/h 16mph /  25.7km/h 70% 0.00in /  0mm 339 W/m2
15:04 66.2 °F /  19 °C 56.1 °F /  13.4 °C 29.82in /  1009.7hPa West 23mph /  37km/h 23mph /  37km/h 70% 0.00in /  0mm 413 W/m2
15:09 66 °F /  18.9 °C 56.3 °F /  13.5 °C 29.83in /  1010hPa West 21mph /  33.8km/h 21mph /  33.8km/h 71% 0.00in /  0mm 805 W/m2
15:14 66.2 °F /  19 °C 56.1 °F /  13.4 °C 29.83in /  1010hPa WNW 16.1mph /  25.9km/h 16mph /  25.7km/h 70% 0.00in /  0mm 939 W/m2
15:19 66.2 °F /  19 °C 56.1 °F /  13.4 °C 29.83in /  1010hPa WNW 8.9mph /  14.3km/h 19mph /  30.6km/h 70% 0.00in /  0mm 243 W/m2
15:24 66.4 °F /  19.1 °C 56.3 °F /  13.5 °C 29.83in /  1010hPa NW 6mph /  9.7km/h 16mph /  25.7km/h 70% 0.00in /  0mm 828 W/m2
15:29 66.6 °F /  19.2 °C 55.6 °F /  13.1 °C 29.83in /  1010hPa NW 6mph /  9.7km/h 14mph /  22.5km/h 68% 0.00in /  0mm 909 W/m2
15:34 66.4 °F /  19.1 °C 55.6 °F /  13.1 °C 29.83in /  1010hPa NW 6.9mph /  11.1km/h 20mph /  32.2km/h 68% 0.00in /  0mm 909 W/m2
15:39 66.6 °F /  19.2 °C 55.2 °F /  12.9 °C 29.83in /  1010hPa West 8.1mph /  13km/h 15mph /  24.1km/h 67% 0.00in /  0mm 450 W/m2
15:44 66.7 °F /  19.3 °C 55 °F /  12.8 °C 29.84in /  1010.4hPa NW 19mph /  30.6km/h 19mph /  30.6km/h 66% 0.00in /  0mm 737 W/m2
15:49 67.1 °F /  19.5 °C 54.9 °F /  12.7 °C 29.84in /  1010.4hPa NW 6mph /  9.7km/h 14mph /  22.5km/h 65% 0.00in /  0mm 737 W/m2
15:54 66.9 °F /  19.4 °C 54 °F /  12.2 °C 29.84in /  1010.4hPa WNW 17mph /  27.4km/h 21mph /  33.8km/h 63% 0.00in /  0mm 740 W/m2
15:59 67.3 °F /  19.6 °C 55.9 °F /  13.3 °C 29.84in /  1010.4hPa NW 15mph /  24.1km/h 16mph /  25.7km/h 67% 0.00in /  0mm 719 W/m2
16:04 67.8 °F /  19.9 °C 56.1 °F /  13.4 °C 29.85in /  1010.7hPa West 13mph /  20.9km/h 17mph /  27.4km/h 66% 0.00in /  0mm 691 W/m2
16:09 67.3 °F /  19.6 °C 55.6 °F /  13.1 °C 29.85in /  1010.7hPa West 14.1mph /  22.7km/h 20mph /  32.2km/h 66% 0.00in /  0mm 689 W/m2
16:14 67.8 °F /  19.9 °C 56.1 °F /  13.4 °C 29.85in /  1010.7hPa WNW 17mph /  27.4km/h 19mph /  30.6km/h 66% 0.00in /  0mm 682 W/m2
16:19 68 °F /  20 °C 55.4 °F /  13 °C 29.85in /  1010.7hPa West 21mph /  33.8km/h 21mph /  33.8km/h 64% 0.00in /  0mm 666 W/m2
16:24 67.5 °F /  19.7 °C 54.9 °F /  12.7 °C 29.85in /  1010.7hPa West 8.1mph /  13km/h 18mph /  29km/h 64% 0.00in /  0mm 657 W/m2
16:29 68 °F /  20 °C 55.8 °F /  13.2 °C 29.85in /  1010.7hPa West 17mph /  27.4km/h 19mph /  30.6km/h 65% 0.00in /  0mm 650 W/m2
16:34 68 °F /  20 °C 55.4 °F /  13 °C 29.85in /  1010.7hPa WNW 17mph /  27.4km/h 17mph /  27.4km/h 64% 0.00in /  0mm 664 W/m2
16:39 67.8 °F /  19.9 °C 55.6 °F /  13.1 °C 29.86in /  1011.1hPa WSW 6mph /  9.7km/h 10mph /  16.1km/h 65% 0.00in /  0mm 784 W/m2
16:44 67.5 °F /  19.7 °C 55.2 °F /  12.9 °C 29.86in /  1011.1hPa West 6mph /  9.7km/h 11mph /  17.7km/h 65% 0.00in /  0mm 383 W/m2
16:49 66.6 °F /  19.2 °C 54.5 °F /  12.5 °C 29.86in /  1011.1hPa West 14.1mph /  22.7km/h 19mph /  30.6km/h 65% 0.00in /  0mm 294 W/m2
16:54 65.8 °F /  18.8 °C 55 °F /  12.8 °C 29.86in /  1011.1hPa West 6mph /  9.7km/h 16mph /  25.7km/h 68% 0.00in /  0mm 264 W/m2
16:59 66.2 °F /  19 °C 55.8 °F /  13.2 °C 29.86in /  1011.1hPa WNW 8.1mph /  13km/h 15mph /  24.1km/h 69% 0.00in /  0mm 673 W/m2
17:04 66.6 °F /  19.2 °C 55.2 °F /  12.9 °C 29.87in /  1011.4hPa West 21mph /  33.8km/h 21mph /  33.8km/h 67% 0.00in /  0mm 603 W/m2
17:09 65.8 °F /  18.8 °C 55.4 °F /  13 °C 29.87in /  1011.4hPa West 6.9mph /  11.1km/h 15mph /  24.1km/h 69% 0.00in /  0mm 188 W/m2
17:14 65.8 °F /  18.8 °C 55.4 °F /  13 °C 29.87in /  1011.4hPa West 13mph /  20.9km/h 18mph /  29km/h 69% 0.00in /  0mm 232 W/m2
17:19 65.7 °F /  18.7 °C 55.2 °F /  12.9 °C 29.87in /  1011.4hPa WSW 15mph /  24.1km/h 16mph /  25.7km/h 69% 0.00in /  0mm 362 W/m2
17:24 65.3 °F /  18.5 °C 55.2 °F /  12.9 °C 29.87in /  1011.4hPa WNW 14.1mph /  22.7km/h 22mph /  35.4km/h 70% 0.00in /  0mm 587 W/m2
17:29 65.8 °F /  18.8 °C 55.8 °F /  13.2 °C 29.87in /  1011.4hPa West 12.1mph /  19.5km/h 14mph /  22.5km/h 70% 0.00in /  0mm 301 W/m2
17:34 65.8 °F /  18.8 °C 55.8 °F /  13.2 °C 29.87in /  1011.4hPa WNW 19mph /  30.6km/h 19mph /  30.6km/h 70% 0.00in /  0mm 441 W/m2
17:39 65.8 °F /  18.8 °C 55.8 °F /  13.2 °C 29.87in /  1011.4hPa NW 8.9mph /  14.3km/h 16mph /  25.7km/h 70% 0.00in /  0mm 534 W/m2
17:44 66 °F /  18.9 °C 55.9 °F /  13.3 °C 29.88in /  1011.7hPa WNW 15mph /  24.1km/h 16mph /  25.7km/h 70% 0.00in /  0mm 220 W/m2
17:49 65.1 °F /  18.4 °C 55 °F /  12.8 °C 29.88in /  1011.7hPa WNW 8.1mph /  13km/h 15mph /  24.1km/h 70% 0.00in /  0mm 221 W/m2
17:54 66 °F /  18.9 °C 55.9 °F /  13.3 °C 29.88in /  1011.7hPa WNW 6.9mph /  11.1km/h 13mph /  20.9km/h 70% 0.00in /  0mm 468 W/m2
17:59 66.2 °F /  19 °C 56.1 °F /  13.4 °C 29.88in /  1011.7hPa WNW 8.9mph /  14.3km/h 12mph /  19.3km/h 70% 0.00in /  0mm 461 W/m2
18:04 66.2 °F /  19 °C 56.1 °F /  13.4 °C 29.88in /  1011.7hPa WSW 8.1mph /  13km/h 15mph /  24.1km/h 70% 0.00in /  0mm 454 W/m2
18:09 65.8 °F /  18.8 °C 55.8 °F /  13.2 °C 29.88in /  1011.7hPa WNW 10.1mph /  16.3km/h 20mph /  32.2km/h 70% 0.00in /  0mm 313 W/m2
18:14 65.8 °F /  18.8 °C 56.1 °F /  13.4 °C 29.88in /  1011.7hPa WSW 6mph /  9.7km/h 13mph /  20.9km/h 71% 0.00in /  0mm 366 W/m2
18:19 65.8 °F /  18.8 °C 56.1 °F /  13.4 °C 29.88in /  1011.7hPa West 10.1mph /  16.3km/h 11mph /  17.7km/h 71% 0.00in /  0mm 380 W/m2
18:24 66 °F /  18.9 °C 56.3 °F /  13.5 °C 29.88in /  1011.7hPa WNW 6.9mph /  11.1km/h 13mph /  20.9km/h 71% 0.00in /  0mm 373 W/m2
18:29 65.7 °F /  18.7 °C 55.9 °F /  13.3 °C 29.88in /  1011.7hPa WSW 6.9mph /  11.1km/h 15mph /  24.1km/h 71% 0.00in /  0mm 345 W/m2
18:34 65.5 °F /  18.6 °C 56.3 °F /  13.5 °C 29.88in /  1011.7hPa West 8.1mph /  13km/h 17mph /  27.4km/h 72% 0.00in /  0mm 327 W/m2
18:39 65.5 °F /  18.6 °C 56.3 °F /  13.5 °C 29.89in /  1012.1hPa WNW 15mph /  24.1km/h 18mph /  29km/h 72% 0.00in /  0mm 123 W/m2
18:44 64.9 °F /  18.3 °C 56.1 °F /  13.4 °C 29.89in /  1012.1hPa NW 8.1mph /  13km/h 16mph /  25.7km/h 73% 0.00in /  0mm 285 W/m2
18:49 64.4 °F /  18 °C 55.6 °F /  13.1 °C 29.89in /  1012.1hPa WNW 11mph /  17.7km/h 13mph /  20.9km/h 73% 0.00in /  0mm 181 W/m2
18:54 63.9 °F /  17.7 °C 55 °F /  12.8 °C 29.90in /  1012.4hPa West 11mph /  17.7km/h 22mph /  35.4km/h 73% 0.00in /  0mm 107 W/m2
18:59 63.5 °F /  17.5 °C 55 °F /  12.8 °C 29.90in /  1012.4hPa West 8.1mph /  13km/h 16mph /  25.7km/h 74% 0.00in /  0mm 111 W/m2
19:04 64 °F /  17.8 °C 55.6 °F /  13.1 °C 29.90in /  1012.4hPa West 15mph /  24.1km/h 17mph /  27.4km/h 74% 0.00in /  0mm 338 W/m2
19:09 64.4 °F /  18 °C 55.6 °F /  13.1 °C 29.90in /  1012.4hPa West 14.1mph /  22.7km/h 14mph /  22.5km/h 73% 0.00in /  0mm 285 W/m2
19:14 64.4 °F /  18 °C 55.6 °F /  13.1 °C 29.91in /  1012.8hPa WNW 4.9mph /  7.9km/h 17mph /  27.4km/h 73% 0.00in /  0mm 234 W/m2
19:19 64.8 °F /  18.2 °C 55.9 °F /  13.3 °C 29.91in /  1012.8hPa WSW 8.1mph /  13km/h 12mph /  19.3km/h 73% 0.00in /  0mm 216 W/m2
19:24 64.4 °F /  18 °C 55.6 °F /  13.1 °C 29.91in /  1012.8hPa West 16.1mph /  25.9km/h 16mph /  25.7km/h 73% 0.00in /  0mm 204 W/m2
19:29 63.9 °F /  17.7 °C 54.3 °F /  12.4 °C 29.91in /  1012.8hPa WSW 20mph /  32.2km/h 20mph /  32.2km/h 71% 0.00in /  0mm 188 W/m2
19:33 63.9 °F /  17.7 °C 54 °F /  12.2 °C 29.92in /  1013.1hPa WSW 6.9mph /  11.1km/h 16mph /  25.7km/h 70% 0.00in /  0mm 171 W/m2
19:39 64 °F /  17.8 °C 54.1 °F /  12.3 °C 29.92in /  1013.1hPa WNW 6.9mph /  11.1km/h 8mph /  12.9km/h 70% 0.00in /  0mm 148 W/m2
19:44 63.9 °F /  17.7 °C 54 °F /  12.2 °C 29.92in /  1013.1hPa WNW 6mph /  9.7km/h 15mph /  24.1km/h 70% 0.00in /  0mm 130 W/m2
19:49 63.3 °F /  17.4 °C 53.4 °F /  11.9 °C 29.92in /  1013.1hPa West 4.9mph /  7.9km/h 16mph /  25.7km/h 70% 0.00in /  0mm 120 W/m2
19:54 63.3 °F /  17.4 °C 53.8 °F /  12.1 °C 29.92in /  1013.1hPa WNW 4.9mph /  7.9km/h 10mph /  16.1km/h 71% 0.00in /  0mm 102 W/m2
19:59 63.3 °F /  17.4 °C 54.1 °F /  12.3 °C 29.92in /  1013.1hPa West 2.9mph /  4.7km/h 14mph /  22.5km/h 72% 0.00in /  0mm 93 W/m2
20:04 63.1 °F /  17.3 °C 54 °F /  12.2 °C 29.93in /  1013.4hPa WSW 8.1mph /  13km/h 10mph /  16.1km/h 72% 0.00in /  0mm 84 W/m2
20:09 63.1 °F /  17.3 °C 54.3 °F /  12.4 °C 29.93in /  1013.4hPa WNW 4.9mph /  7.9km/h 7mph /  11.3km/h 73% 0.00in /  0mm 70 W/m2
20:14 62.6 °F /  17 °C 53.8 °F /  12.1 °C 29.93in /  1013.4hPa WNW 6mph /  9.7km/h 10mph /  16.1km/h 73% 0.00in /  0mm 58 W/m2
20:19 62.6 °F /  17 °C 54.1 °F /  12.3 °C 29.93in /  1013.4hPa WNW 4mph /  6.4km/h 9mph /  14.5km/h 74% 0.00in /  0mm 51 W/m2
20:24 62.4 °F /  16.9 °C 54 °F /  12.2 °C 29.93in /  1013.4hPa WNW 8.9mph /  14.3km/h 13mph /  20.9km/h 74% 0.00in /  0mm 37 W/m2
20:29 62.2 °F /  16.8 °C 53.8 °F /  12.1 °C 29.94in /  1013.8hPa WNW 6.9mph /  11.1km/h 11mph /  17.7km/h 74% 0.00in /  0mm 30 W/m2
20:34 62.1 °F /  16.7 °C 54 °F /  12.2 °C 29.94in /  1013.8hPa NW 8.1mph /  13km/h 11mph /  17.7km/h 75% 0.00in /  0mm 30 W/m2
20:39 61.9 °F /  16.6 °C 53.8 °F /  12.1 °C 29.94in /  1013.8hPa West 4mph /  6.4km/h 9mph /  14.5km/h 75% 0.00in /  0mm 21 W/m2
20:44 61.7 °F /  16.5 °C 53.8 °F /  12.1 °C 29.95in /  1014.1hPa West 6.9mph /  11.1km/h 10mph /  16.1km/h 75% 0.00in /  0mm 18 W/m2
20:49 61.5 °F /  16.4 °C 53.6 °F /  12 °C 29.95in /  1014.1hPa West 13mph /  20.9km/h 13mph /  20.9km/h 75% 0.00in /  0mm 14 W/m2
20:54 61.3 °F /  16.3 °C 53.8 °F /  12.1 °C 29.95in /  1014.1hPa West 4.9mph /  7.9km/h 10mph /  16.1km/h 76% 0.00in /  0mm 12 W/m2
20:59 61.2 °F /  16.2 °C 53.6 °F /  12 °C 29.95in /  1014.1hPa WNW 2.9mph /  4.7km/h 14mph /  22.5km/h 76% 0.00in /  0mm 11 W/m2
21:04 61 °F /  16.1 °C 53.4 °F /  11.9 °C 29.96in /  1014.4hPa West 2.9mph /  4.7km/h 8mph /  12.9km/h 76% 0.00in /  0mm 7 W/m2
21:09 60.8 °F /  16 °C 53.6 °F /  12 °C 29.96in /  1014.4hPa WNW 2mph /  3.2km/h 8mph /  12.9km/h 77% 0.00in /  0mm 5 W/m2
21:14 60.6 °F /  15.9 °C 53.8 °F /  12.1 °C 29.96in /  1014.4hPa WNW 2.9mph /  4.7km/h 9mph /  14.5km/h 78% 0.00in /  0mm 0 W/m2
21:19 60.4 °F /  15.8 °C 54 °F /  12.2 °C 29.96in /  1014.4hPa West 4mph /  6.4km/h 7mph /  11.3km/h 79% 0.00in /  0mm 0 W/m2
21:24 60.3 °F /  15.7 °C 53.8 °F /  12.1 °C 29.97in /  1014.8hPa West 8.1mph /  13km/h 8mph /  12.9km/h 79% 0.00in /  0mm 0 W/m2
21:29 60.1 °F /  15.6 °C 54 °F /  12.2 °C 29.97in /  1014.8hPa WSW 4.9mph /  7.9km/h 10mph /  16.1km/h 80% 0.00in /  0mm 0 W/m2
21:34 59.9 °F /  15.5 °C 53.8 °F /  12.1 °C 29.98in /  1015.1hPa WNW 0.9mph /  1.4km/h 6mph /  9.7km/h 80% 0.00in /  0mm 0 W/m2
21:39 59.7 °F /  15.4 °C 53.6 °F /  12 °C 29.98in /  1015.1hPa WNW 4mph /  6.4km/h 6mph /  9.7km/h 80% 0.00in /  0mm 0 W/m2
21:44 59.7 °F /  15.4 °C 54 °F /  12.2 °C 29.98in /  1015.1hPa West 2.9mph /  4.7km/h 5mph /  8km/h 81% 0.00in /  0mm 0 W/m2
21:49 59.7 °F /  15.4 °C 54 °F /  12.2 °C 29.98in /  1015.1hPa West 2mph /  3.2km/h 3mph /  4.8km/h 81% 0.00in /  0mm 0 W/m2
21:54 59.5 °F /  15.3 °C 53.8 °F /  12.1 °C 29.98in /  1015.1hPa West 0.9mph /  1.4km/h 4mph /  6.4km/h 81% 0.00in /  0mm 0 W/m2
21:59 59.4 °F /  15.2 °C 53.6 °F /  12 °C 29.98in /  1015.1hPa West 2mph /  3.2km/h 5mph /  8km/h 81% 0.00in /  0mm 0 W/m2
22:04 59.2 °F /  15.1 °C 53.6 °F /  12 °C 29.98in /  1015.1hPa West 0.9mph /  1.4km/h 4mph /  6.4km/h 82% 0.00in /  0mm 0 W/m2
22:09 59.2 °F /  15.1 °C 53.6 °F /  12 °C 29.99in /  1015.5hPa Calm   3mph /  4.8km/h 82% 0.00in /  0mm 0 W/m2
22:14 59 °F /  15 °C 53.6 °F /  12 °C 29.99in /  1015.5hPa West 2.9mph /  4.7km/h 4mph /  6.4km/h 82% 0.00in /  0mm 0 W/m2
22:19 58.8 °F /  14.9 °C 53.4 °F /  11.9 °C 29.99in /  1015.5hPa West 0.9mph /  1.4km/h 4mph /  6.4km/h 82% 0.00in /  0mm 0 W/m2
22:23 58.6 °F /  14.8 °C 53.2 °F /  11.8 °C 29.99in /  1015.5hPa West 0.9mph /  1.4km/h 2mph /  3.2km/h 82% 0.00in /  0mm 0 W/m2
22:28 58.6 °F /  14.8 °C 53.2 °F /  11.8 °C 29.99in /  1015.5hPa Calm   3mph /  4.8km/h 82% 0.00in /  0mm 0 W/m2
22:32 58.5 °F /  14.7 °C 53.1 °F /  11.7 °C 29.99in /  1015.5hPa Calm   4mph /  6.4km/h 82% 0.00in /  0mm 0 W/m2
22:39 58.3 °F /  14.6 °C 53.1 °F /  11.7 °C 30.00in /  1015.8hPa Calm   4mph /  6.4km/h 83% 0.00in /  0mm 0 W/m2
22:44 58.1 °F /  14.5 °C 52.9 °F /  11.6 °C 30.00in /  1015.8hPa Calm     83% 0.00in /  0mm 0 W/m2
22:49 57.9 °F /  14.4 °C 52.7 °F /  11.5 °C 30.00in /  1015.8hPa West 2mph /  3.2km/h 2mph /  3.2km/h 83% 0.00in /  0mm 0 W/m2
22:54 57.9 °F /  14.4 °C 52.7 °F /  11.5 °C 30.00in /  1015.8hPa Calm   1mph /  1.6km/h 83% 0.00in /  0mm 0 W/m2
22:59 57.9 °F /  14.4 °C 52.7 °F /  11.5 °C 30.00in /  1015.8hPa West 0.9mph /  1.4km/h 2mph /  3.2km/h 83% 0.00in /  0mm 0 W/m2
23:04 57.7 °F /  14.3 °C 52.7 °F /  11.5 °C 30.01in /  1016.1hPa West 0.9mph /  1.4km/h 3mph /  4.8km/h 83% 0.00in /  0mm 0 W/m2
23:09 57.7 °F /  14.3 °C 52.9 °F /  11.6 °C 30.00in /  1015.8hPa Calm   2mph /  3.2km/h 84% 0.00in /  0mm 0 W/m2
23:14 57.6 °F /  14.2 °C 52.7 °F /  11.5 °C 30.01in /  1016.1hPa Calm   3mph /  4.8km/h 84% 0.00in /  0mm 0 W/m2
23:19 57.6 °F /  14.2 °C 52.7 °F /  11.5 °C 30.01in /  1016.1hPa West 0.9mph /  1.4km/h 3mph /  4.8km/h 84% 0.00in /  0mm 0 W/m2
23:24 57.4 °F /  14.1 °C 52.5 °F /  11.4 °C 30.01in /  1016.1hPa West 2mph /  3.2km/h 4mph /  6.4km/h 84% 0.00in /  0mm 0 W/m2
23:29 57.4 °F /  14.1 °C 52.5 °F /  11.4 °C 30.01in /  1016.1hPa West 0.9mph /  1.4km/h 4mph /  6.4km/h 84% 0.00in /  0mm 0 W/m2
23:34 57.2 °F /  14 °C 52.3 °F /  11.3 °C 30.01in /  1016.1hPa Calm   1mph /  1.6km/h 84% 0.00in /  0mm 0 W/m2
23:39 57.2 °F /  14 °C 52.3 °F /  11.3 °C 30.01in /  1016.1hPa Calm   3mph /  4.8km/h 84% 0.00in /  0mm 0 W/m2
23:44 57.2 °F /  14 °C 52.3 °F /  11.3 °C 30.01in /  1016.1hPa West 0.9mph /  1.4km/h 1mph /  1.6km/h 84% 0.00in /  0mm 0 W/m2
23:49 57 °F /  13.9 °C 52.5 °F /  11.4 °C 30.01in /  1016.1hPa West 0.9mph /  1.4km/h 3mph /  4.8km/h 85% 0.00in /  0mm 0 W/m2
23:54 57 °F /  13.9 °C 52.5 °F /  11.4 °C 30.01in /  1016.1hPa Calm   2mph /  3.2km/h 85% 0.00in /  0mm 0 W/m2
23:59 57 °F /  13.9 °C 52.5 °F /  11.4 °C 30.02in /  1016.5hPa Calm   1mph /  1.6km/h 85% 0.00in /  0mm 0 W/m2
Bath Spa Weather
Compliments of Weather Underground - 2 mb